Time,TemperatureF,DewpointF,PressureIn,WindDirection,WindDirectionDegrees,WindSpeedMPH,WindSpeedGustMPH,Humidity,HourlyPrecipIn,Conditions,Clouds,dailyrainin,SoftwareType,DateUTC
2013-09-09 00:12:00,55.0,50.0,-100.00,NNE,15,1.0,6.0,83,-99.99,,,0.00,,2013-09-09 06:12:00,
2013-09-09 00:21:00,55.0,50.0,-100.00,NNE,15,1.0,6.0,83,-99.99,,,0.00,,2013-09-09 06:21:00,
2013-09-09 00:42:00,56.0,51.0,-100.00,WNW,285,4.0,5.0,82,-99.99,,,0.00,,2013-09-09 06:42:00,
2013-09-09 00:52:00,56.0,51.0,-100.00,WNW,285,4.0,5.0,82,-99.99,,,0.00,,2013-09-09 06:52:00,
2013-09-09 01:11:00,57.0,51.0,-100.00,West,265,4.0,6.0,81,-99.99,,,0.00,,2013-09-09 07:11:00,
2013-09-09 01:21:00,57.0,51.0,-100.00,West,265,4.0,6.0,81,-99.99,,,0.00,,2013-09-09 07:21:00,
2013-09-09 01:43:00,58.0,51.0,-100.00,West,260,4.0,6.0,78,-99.99,,,0.00,,2013-09-09 07:43:00,
2013-09-09 01:52:00,58.0,51.0,-100.00,West,260,4.0,6.0,78,-99.99,,,0.00,,2013-09-09 07:52:00,
2013-09-09 02:11:00,58.0,51.0,-100.00,West,270,8.0,9.0,78,-99.99,,,0.00,,2013-09-09 08:11:00,
2013-09-09 02:42:00,58.0,51.0,-100.00,WSW,255,4.0,6.0,78,-99.99,,,0.00,,2013-09-09 08:42:00,
2013-09-09 02:52:00,58.0,51.0,-100.00,WSW,255,4.0,6.0,78,-99.99,,,0.00,,2013-09-09 08:52:00,
2013-09-09 03:00:00,56.0,51.0,-100.00,SSW,195,5.0,6.0,82,-99.99,,,0.00,,2013-09-09 09:00:00,
2013-09-09 03:12:00,58.0,51.0,-100.00,SSW,210,3.0,3.0,80,-99.99,,,0.00,,2013-09-09 09:12:00,
2013-09-09 03:22:00,58.0,51.0,-100.00,SSW,210,3.0,3.0,80,-99.99,,,0.00,,2013-09-09 09:22:00,
2013-09-09 03:43:00,56.0,51.0,-100.00,SSW,195,5.0,6.0,82,-99.99,,,0.00,,2013-09-09 09:43:00,
2013-09-09 03:53:00,56.0,51.0,-100.00,SSW,195,5.0,6.0,82,-99.99,,,0.00,,2013-09-09 09:53:00,
2013-09-09 04:42:00,58.0,50.0,-100.00,WSW,255,6.0,7.0,76,-99.99,,,0.00,,2013-09-09 10:42:00,
2013-09-09 04:52:00,58.0,50.0,-100.00,WSW,255,6.0,7.0,76,-99.99,,,0.00,,2013-09-09 10:52:00,
2013-09-09 05:11:00,57.0,50.0,-100.00,West,265,5.0,8.0,76,-99.99,,,0.00,,2013-09-09 11:11:00,
2013-09-09 05:42:00,57.0,49.0,-100.00,West,265,5.0,9.0,75,-99.99,,,0.00,,2013-09-09 11:42:00,
2013-09-09 05:52:00,57.0,49.0,-100.00,West,265,5.0,9.0,75,-99.99,,,0.00,,2013-09-09 11:52:00,
2013-09-09 06:00:00,55.0,48.0,-100.00,NW,305,8.0,12.0,77,-99.99,,,0.00,,2013-09-09 12:00:00,
2013-09-09 06:12:00,56.0,49.0,-100.00,West,260,6.0,9.0,76,-99.99,,,0.00,,2013-09-09 12:12:00,
2013-09-09 06:22:00,56.0,49.0,-100.00,West,260,6.0,9.0,76,-99.99,,,0.00,,2013-09-09 12:22:00,
2013-09-09 06:42:00,55.0,48.0,-100.00,NW,305,8.0,12.0,77,-99.99,,,0.00,,2013-09-09 12:42:00,
2013-09-09 06:52:00,55.0,48.0,-100.00,NW,305,8.0,12.0,77,-99.99,,,0.00,,2013-09-09 12:52:00,
2013-09-09 07:21:00,57.0,43.0,-100.00,NW,310,13.0,17.0,59,-99.99,,,0.00,,2013-09-09 13:21:00,
2013-09-09 07:42:00,56.0,44.0,-100.00,WNW,300,5.0,9.0,64,-99.99,,,0.00,,2013-09-09 13:42:00,
2013-09-09 07:52:00,56.0,44.0,-100.00,WNW,300,5.0,9.0,64,-99.99,,,0.00,,2013-09-09 13:52:00,
2013-09-09 08:12:00,57.0,45.0,-100.00,West,260,3.0,4.0,65,-99.99,,,0.00,,2013-09-09 14:12:00,
2013-09-09 08:21:00,57.0,45.0,-100.00,West,260,3.0,4.0,65,-99.99,,,0.00,,2013-09-09 14:21:00,
2013-09-09 08:42:00,60.0,46.0,-100.00,SW,230,4.0,6.0,59,-99.99,,,0.00,,2013-09-09 14:42:00,
2013-09-09 08:52:00,60.0,46.0,-100.00,SW,230,4.0,6.0,59,-99.99,,,0.00,,2013-09-09 14:52:00,
2013-09-09 09:11:00,61.0,45.0,-100.00,WSW,255,5.0,8.0,55,-99.99,,,0.00,,2013-09-09 15:11:00,
2013-09-09 09:22:00,61.0,45.0,-100.00,WSW,255,5.0,8.0,55,-99.99,,,0.00,,2013-09-09 15:22:00,
2013-09-09 09:43:00,62.0,42.0,-100.00,WSW,250,10.0,13.0,48,-99.99,,,0.00,,2013-09-09 15:43:00,
2013-09-09 09:53:00,62.0,42.0,-100.00,WSW,250,10.0,13.0,48,-99.99,,,0.00,,2013-09-09 15:53:00,
2013-09-09 10:13:00,64.0,41.0,-100.00,West,270,7.0,13.0,43,-99.99,,,0.00,,2013-09-09 16:13:00,
2013-09-09 10:24:00,64.0,41.0,-100.00,West,270,7.0,13.0,43,-99.99,,,0.00,,2013-09-09 16:24:00,
2013-09-09 10:43:00,65.0,40.0,-100.00,WSW,255,8.0,13.0,40,-99.99,,,0.00,,2013-09-09 16:43:00,
2013-09-09 10:54:00,65.0,40.0,-100.00,WSW,255,8.0,13.0,40,-99.99,,,0.00,,2013-09-09 16:54:00,
2013-09-09 11:12:00,66.0,39.0,-100.00,WNW,285,12.0,17.0,38,-99.99,,,0.00,,2013-09-09 17:12:00,
2013-09-09 11:23:00,66.0,39.0,-100.00,WNW,285,12.0,17.0,38,-99.99,,,0.00,,2013-09-09 17:23:00,
2013-09-09 11:43:00,68.0,39.0,-100.00,West,260,17.0,22.0,35,-99.99,,,0.00,,2013-09-09 17:43:00,
2013-09-09 11:52:00,68.0,39.0,-100.00,West,260,17.0,22.0,35,-99.99,,,0.00,,2013-09-09 17:52:00,
2013-09-09 12:13:00,69.0,39.0,-100.00,WNW,285,16.0,27.0,34,-99.99,,,0.00,,2013-09-09 18:13:00,
2013-09-09 12:21:00,69.0,39.0,-100.00,WNW,285,16.0,27.0,34,-99.99,,,0.00,,2013-09-09 18:21:00,
2013-09-09 12:42:00,69.0,39.0,-100.00,NW,310,17.0,28.0,34,-99.99,,,0.00,,2013-09-09 18:42:00,
2013-09-09 12:52:00,69.0,39.0,-100.00,NW,310,17.0,28.0,34,-99.99,,,0.00,,2013-09-09 18:52:00,
2013-09-09 13:00:00,70.0,39.0,-100.00,NW,305,17.0,24.0,33,-99.99,,,0.00,,2013-09-09 19:00:00,
2013-09-09 13:12:00,71.0,40.0,-100.00,NW,305,19.0,27.0,33,-99.99,,,0.00,,2013-09-09 19:12:00,
2013-09-09 13:22:00,71.0,40.0,-100.00,NW,305,19.0,27.0,33,-99.99,,,0.00,,2013-09-09 19:22:00,
2013-09-09 13:42:00,70.0,39.0,-100.00,NW,305,17.0,24.0,33,-99.99,,,0.00,,2013-09-09 19:42:00,
2013-09-09 13:52:00,70.0,39.0,-100.00,NW,305,17.0,24.0,33,-99.99,,,0.00,,2013-09-09 19:52:00,
2013-09-09 14:42:00,70.0,39.0,-100.00,NW,310,16.0,23.0,32,-99.99,,,-99.99,,2013-09-09 20:42:00,
2013-09-09 14:52:00,70.0,39.0,-100.00,NW,310,16.0,23.0,32,-99.99,,,-99.99,,2013-09-09 20:52:00,
2013-09-09 15:12:00,70.0,39.0,-100.00,WNW,290,10.0,17.0,32,-99.99,,,-99.99,,2013-09-09 21:12:00,
2013-09-09 15:22:00,70.0,39.0,-100.00,WNW,290,10.0,17.0,32,-99.99,,,-99.99,,2013-09-09 21:22:00,
2013-09-09 15:44:00,71.0,40.0,-100.00,WNW,300,17.0,24.0,32,-99.99,,,-99.99,,2013-09-09 21:44:00,
2013-09-09 15:54:00,71.0,40.0,-100.00,WNW,300,17.0,24.0,32,-99.99,,,-99.99,,2013-09-09 21:54:00,
2013-09-09 16:13:00,71.0,39.0,-100.00,WNW,300,13.0,19.0,31,-99.99,,,-99.99,,2013-09-09 22:13:00,
2013-09-09 16:24:00,71.0,39.0,-100.00,WNW,300,13.0,19.0,31,-99.99,,,-99.99,,2013-09-09 22:24:00,
2013-09-09 16:43:00,74.0,41.0,-100.00,NW,310,16.0,21.0,30,-99.99,,,-99.99,,2013-09-09 22:43:00,
2013-09-09 16:54:00,74.0,41.0,-100.00,NW,310,16.0,21.0,30,-99.99,,,-99.99,,2013-09-09 22:54:00,
2013-09-09 17:00:00,73.0,40.0,-100.00,WNW,300,14.0,20.0,30,-99.99,,,0.00,,2013-09-09 23:00:00,
2013-09-09 17:12:00,74.0,40.0,-100.00,WNW,295,15.0,21.0,29,-99.99,,,-99.99,,2013-09-09 23:12:00,
2013-09-09 17:22:00,74.0,40.0,-100.00,WNW,295,15.0,21.0,29,-99.99,,,-99.99,,2013-09-09 23:22:00,
2013-09-09 17:42:00,73.0,40.0,-100.00,WNW,300,14.0,20.0,30,-99.99,,,0.00,,2013-09-09 23:42:00,
2013-09-09 17:52:00,73.0,40.0,-100.00,WNW,300,14.0,20.0,30,-99.99,,,0.00,,2013-09-09 23:52:00,
2013-09-09 18:21:00,75.0,41.0,-100.00,NNW,335,14.0,20.0,30,-99.99,,,0.00,,2013-09-10 00:21:00,
2013-09-09 18:42:00,74.0,41.0,-100.00,NW,305,17.0,22.0,30,-99.99,,,0.00,,2013-09-10 00:42:00,
2013-09-09 18:52:00,74.0,41.0,-100.00,NW,305,17.0,22.0,30,-99.99,,,0.00,,2013-09-10 00:52:00,
2013-09-09 19:11:00,72.0,40.0,-100.00,NNW,330,13.0,19.0,31,-99.99,,,0.00,,2013-09-10 01:11:00,
2013-09-09 19:21:00,72.0,40.0,-100.00,NNW,330,13.0,19.0,31,-99.99,,,0.00,,2013-09-10 01:21:00,
2013-09-09 19:42:00,71.0,40.0,-100.00,NW,325,6.0,13.0,33,-99.99,,,0.00,,2013-09-10 01:42:00,
2013-09-09 19:52:00,71.0,40.0,-100.00,NW,325,6.0,13.0,33,-99.99,,,0.00,,2013-09-10 01:52:00,
2013-09-09 20:12:00,68.0,41.0,-100.00,NW,320,8.0,9.0,38,-99.99,,,0.00,,2013-09-10 02:12:00,
2013-09-09 20:42:00,66.0,42.0,-100.00,NW,315,6.0,10.0,42,-99.99,,,0.00,,2013-09-10 02:42:00,
2013-09-09 20:52:00,66.0,42.0,-100.00,NW,315,6.0,10.0,42,-99.99,,,0.00,,2013-09-10 02:52:00,
2013-09-09 21:00:00,62.0,44.0,-100.00,NNE,15,11.0,11.0,50,-99.99,,,0.00,,2013-09-10 03:00:00,
2013-09-09 21:12:00,65.0,43.0,-100.00,NNW,335,10.0,12.0,44,-99.99,,,0.00,,2013-09-10 03:12:00,
2013-09-09 21:22:00,65.0,43.0,-100.00,NNW,335,10.0,12.0,44,-99.99,,,0.00,,2013-09-10 03:22:00,
2013-09-09 21:44:00,62.0,44.0,-100.00,NNE,15,11.0,11.0,50,-99.99,,,0.00,,2013-09-10 03:44:00,
2013-09-09 21:54:00,62.0,44.0,-100.00,NNE,15,11.0,11.0,50,-99.99,,,0.00,,2013-09-10 03:54:00,
2013-09-09 22:24:00,60.0,46.0,-100.00,North,0,11.0,12.0,58,-99.99,,,0.00,,2013-09-10 04:24:00,
2013-09-09 22:43:00,60.0,45.0,-100.00,North,0,6.0,9.0,56,-99.99,,,0.00,,2013-09-10 04:43:00,
2013-09-09 22:53:00,60.0,45.0,-100.00,North,0,6.0,9.0,56,-99.99,,,0.00,,2013-09-10 04:53:00,
2013-09-09 23:13:00,61.0,44.0,-100.00,North,350,5.0,6.0,53,-99.99,,,0.00,,2013-09-10 05:13:00,
2013-09-09 23:43:00,60.0,44.0,-100.00,NW,305,2.0,3.0,56,-99.99,,,0.00,,2013-09-10 05:43:00,
2013-09-09 23:53:00,60.0,44.0,-100.00,NW,305,2.0,3.0,56,-99.99,,,0.00,,2013-09-10 05:53:00,